sensor_id;sensor_type;location;lat;lon;timestamp;temperature;humidity
1948;DHT22;974;52.400;9.818;2022-08-19T00:00:26;19.70;99.90
1948;DHT22;974;52.400;9.818;2022-08-19T00:02:53;19.60;99.90
1948;DHT22;974;52.400;9.818;2022-08-19T00:05:19;19.60;99.90
1948;DHT22;974;52.400;9.818;2022-08-19T00:07:45;19.60;99.90
1948;DHT22;974;52.400;9.818;2022-08-19T00:10:14;19.50;99.90
1948;DHT22;974;52.400;9.818;2022-08-19T00:12:40;19.50;99.90
1948;DHT22;974;52.400;9.818;2022-08-19T00:15:09;19.50;99.90
1948;DHT22;974;52.400;9.818;2022-08-19T00:17:38;19.50;99.90
1948;DHT22;974;52.400;9.818;2022-08-19T00:20:04;19.40;99.90
1948;DHT22;974;52.400;9.818;2022-08-19T00:22:30;19.40;99.90
1948;DHT22;974;52.400;9.818;2022-08-19T00:24:55;19.40;99.90
1948;DHT22;974;52.400;9.818;2022-08-19T00:27:20;19.30;99.90
1948;DHT22;974;52.400;9.818;2022-08-19T00:29:46;19.20;99.90
1948;DHT22;974;52.400;9.818;2022-08-19T00:32:12;19.20;99.90
1948;DHT22;974;52.400;9.818;2022-08-19T00:34:37;19.20;99.90
1948;DHT22;974;52.400;9.818;2022-08-19T00:37:03;19.10;99.90
1948;DHT22;974;52.400;9.818;2022-08-19T00:39:28;19.00;99.90
1948;DHT22;974;52.400;9.818;2022-08-19T00:41:54;19.00;99.90
1948;DHT22;974;52.400;9.818;2022-08-19T00:44:26;18.90;99.90
1948;DHT22;974;52.400;9.818;2022-08-19T00:46:53;18.90;99.90
1948;DHT22;974;52.400;9.818;2022-08-19T00:49:23;18.90;99.90
1948;DHT22;974;52.400;9.818;2022-08-19T00:51:53;19.00;99.90
1948;DHT22;974;52.400;9.818;2022-08-19T00:54:20;18.90;99.90
1948;DHT22;974;52.400;9.818;2022-08-19T00:56:46;18.90;99.90
1948;DHT22;974;52.400;9.818;2022-08-19T00:59:14;18.80;99.90
1948;DHT22;974;52.400;9.818;2022-08-19T01:01:41;18.80;99.90
1948;DHT22;974;52.400;9.818;2022-08-19T01:04:07;18.90;99.90
1948;DHT22;974;52.400;9.818;2022-08-19T01:06:33;18.80;99.90
1948;DHT22;974;52.400;9.818;2022-08-19T01:09:00;18.80;99.90
1948;DHT22;974;52.400;9.818;2022-08-19T01:11:31;18.80;99.90
1948;DHT22;974;52.400;9.818;2022-08-19T01:13:58;18.80;99.90
1948;DHT22;974;52.400;9.818;2022-08-19T01:16:25;18.80;99.90
1948;DHT22;974;52.400;9.818;2022-08-19T01:18:52;18.70;99.90
1948;DHT22;974;52.400;9.818;2022-08-19T01:21:22;18.70;99.90
1948;DHT22;974;52.400;9.818;2022-08-19T01:23:49;18.60;99.90
1948;DHT22;974;52.400;9.818;2022-08-19T01:26:21;18.40;99.90
1948;DHT22;974;52.400;9.818;2022-08-19T01:28:49;18.40;99.90
1948;DHT22;974;52.400;9.818;2022-08-19T01:31:18;18.30;99.90
1948;DHT22;974;52.400;9.818;2022-08-19T01:33:46;18.50;99.90
1948;DHT22;974;52.400;9.818;2022-08-19T01:36:22;18.50;99.90
1948;DHT22;974;52.400;9.818;2022-08-19T01:38:48;18.60;99.90
1948;DHT22;974;52.400;9.818;2022-08-19T01:41:14;18.50;99.90
1948;DHT22;974;52.400;9.818;2022-08-19T01:43:40;18.50;99.90
1948;DHT22;974;52.400;9.818;2022-08-19T01:46:06;18.40;99.90
1948;DHT22;974;52.400;9.818;2022-08-19T01:48:37;18.40;99.90
1948;DHT22;974;52.400;9.818;2022-08-19T01:51:04;18.40;99.90
1948;DHT22;974;52.400;9.818;2022-08-19T01:53:30;18.40;99.90
1948;DHT22;974;52.400;9.818;2022-08-19T01:55:56;18.50;99.90
1948;DHT22;974;52.400;9.818;2022-08-19T01:58:26;18.50;99.90
1948;DHT22;974;52.400;9.818;2022-08-19T02:00:54;18.50;99.90
1948;DHT22;974;52.400;9.818;2022-08-19T02:03:20;18.60;99.90
1948;DHT22;974;52.400;9.818;2022-08-19T02:05:45;18.50;99.90
1948;DHT22;974;52.400;9.818;2022-08-19T02:08:11;18.60;99.90
1948;DHT22;974;52.400;9.818;2022-08-19T02:10:41;18.60;99.90
1948;DHT22;974;52.400;9.818;2022-08-19T02:13:07;18.50;99.90
1948;DHT22;974;52.400;9.818;2022-08-19T02:15:33;18.60;99.90
1948;DHT22;974;52.400;9.818;2022-08-19T02:17:59;18.40;99.90
1948;DHT22;974;52.400;9.818;2022-08-19T02:20:25;18.60;99.90
1948;DHT22;974;52.400;9.818;2022-08-19T02:22:50;18.50;99.90
1948;DHT22;974;52.400;9.818;2022-08-19T02:25:16;18.40;99.90
1948;DHT22;974;52.400;9.818;2022-08-19T02:27:42;18.40;99.90
1948;DHT22;974;52.400;9.818;2022-08-19T02:30:11;18.50;99.90
1948;DHT22;974;52.400;9.818;2022-08-19T02:32:38;18.50;99.90
1948;DHT22;974;52.400;9.818;2022-08-19T02:35:04;18.40;99.90
1948;DHT22;974;52.400;9.818;2022-08-19T02:37:30;18.30;99.90
1948;DHT22;974;52.400;9.818;2022-08-19T02:40:14;18.30;99.90
1948;DHT22;974;52.400;9.818;2022-08-19T02:42:40;18.30;99.90
1948;DHT22;974;52.400;9.818;2022-08-19T02:45:06;18.30;99.90
1948;DHT22;974;52.400;9.818;2022-08-19T02:47:32;18.30;99.90
1948;DHT22;974;52.400;9.818;2022-08-19T02:50:00;18.30;99.90
1948;DHT22;974;52.400;9.818;2022-08-19T02:52:26;18.20;99.90
1948;DHT22;974;52.400;9.818;2022-08-19T02:54:52;18.30;99.90
1948;DHT22;974;52.400;9.818;2022-08-19T02:57:18;18.20;99.90
1948;DHT22;974;52.400;9.818;2022-08-19T02:59:43;18.30;99.90
1948;DHT22;974;52.400;9.818;2022-08-19T03:02:09;18.30;99.90
1948;DHT22;974;52.400;9.818;2022-08-19T03:04:34;18.30;99.90
1948;DHT22;974;52.400;9.818;2022-08-19T03:06:59;18.40;99.90
1948;DHT22;974;52.400;9.818;2022-08-19T03:09:25;18.40;99.90
1948;DHT22;974;52.400;9.818;2022-08-19T03:11:50;18.30;99.90
1948;DHT22;974;52.400;9.818;2022-08-19T03:14:16;18.30;99.90
1948;DHT22;974;52.400;9.818;2022-08-19T03:16:48;18.40;99.90
1948;DHT22;974;52.400;9.818;2022-08-19T03:19:17;18.50;99.90
1948;DHT22;974;52.400;9.818;2022-08-19T03:21:44;18.40;99.90
1948;DHT22;974;52.400;9.818;2022-08-19T03:24:10;18.50;99.90
1948;DHT22;974;52.400;9.818;2022-08-19T03:26:44;18.40;99.90
1948;DHT22;974;52.400;9.818;2022-08-19T03:29:11;18.40;99.90
1948;DHT22;974;52.400;9.818;2022-08-19T03:31:39;18.40;99.90
1948;DHT22;974;52.400;9.818;2022-08-19T03:34:05;18.30;99.90
1948;DHT22;974;52.400;9.818;2022-08-19T03:36:31;18.30;99.90
1948;DHT22;974;52.400;9.818;2022-08-19T03:38:59;18.30;99.90
1948;DHT22;974;52.400;9.818;2022-08-19T03:41:30;18.30;99.90
1948;DHT22;974;52.400;9.818;2022-08-19T03:43:56;18.30;99.90
1948;DHT22;974;52.400;9.818;2022-08-19T03:46:28;18.30;99.90
1948;DHT22;974;52.400;9.818;2022-08-19T03:48:55;18.40;99.90
1948;DHT22;974;52.400;9.818;2022-08-19T03:51:24;18.40;99.90
1948;DHT22;974;52.400;9.818;2022-08-19T03:53:51;18.30;99.90
1948;DHT22;974;52.400;9.818;2022-08-19T03:56:18;18.20;99.90
1948;DHT22;974;52.400;9.818;2022-08-19T03:58:44;18.20;99.90
1948;DHT22;974;52.400;9.818;2022-08-19T04:01:15;18.10;99.90
1948;DHT22;974;52.400;9.818;2022-08-19T04:03:41;18.10;99.90
1948;DHT22;974;52.400;9.818;2022-08-19T04:08:39;18.00;99.90
1948;DHT22;974;52.400;9.818;2022-08-19T04:11:10;18.00;99.90
1948;DHT22;974;52.400;9.818;2022-08-19T04:13:36;18.00;99.90
1948;DHT22;974;52.400;9.818;2022-08-19T04:16:02;18.00;99.90
1948;DHT22;974;52.400;9.818;2022-08-19T04:18:28;18.00;99.90
1948;DHT22;974;52.400;9.818;2022-08-19T04:20:55;17.90;99.90
1948;DHT22;974;52.400;9.818;2022-08-19T04:23:22;17.80;99.90
1948;DHT22;974;52.400;9.818;2022-08-19T04:25:48;17.90;99.90
1948;DHT22;974;52.400;9.818;2022-08-19T04:28:13;17.90;99.90
1948;DHT22;974;52.400;9.818;2022-08-19T04:30:48;17.80;99.90
1948;DHT22;974;52.400;9.818;2022-08-19T04:33:15;17.80;99.90
1948;DHT22;974;52.400;9.818;2022-08-19T04:35:43;17.80;99.90
1948;DHT22;974;52.400;9.818;2022-08-19T04:38:10;17.60;99.90
1948;DHT22;974;52.400;9.818;2022-08-19T04:40:48;17.70;99.90
1948;DHT22;974;52.400;9.818;2022-08-19T04:43:34;17.70;99.90
1948;DHT22;974;52.400;9.818;2022-08-19T04:46:07;17.70;99.90
1948;DHT22;974;52.400;9.818;2022-08-19T04:48:34;17.70;99.90
1948;DHT22;974;52.400;9.818;2022-08-19T04:51:00;17.70;99.90
1948;DHT22;974;52.400;9.818;2022-08-19T04:53:30;17.70;99.90
1948;DHT22;974;52.400;9.818;2022-08-19T04:55:58;17.80;99.90
1948;DHT22;974;52.400;9.818;2022-08-19T04:58:26;17.70;99.90
1948;DHT22;974;52.400;9.818;2022-08-19T05:00:53;17.70;99.90
1948;DHT22;974;52.400;9.818;2022-08-19T05:03:19;17.70;99.90
1948;DHT22;974;52.400;9.818;2022-08-19T05:05:46;17.70;99.90
1948;DHT22;974;52.400;9.818;2022-08-19T05:08:19;17.70;99.90
1948;DHT22;974;52.400;9.818;2022-08-19T05:10:47;17.70;99.90
1948;DHT22;974;52.400;9.818;2022-08-19T05:13:14;17.70;99.90
1948;DHT22;974;52.400;9.818;2022-08-19T05:15:41;17.70;99.90
1948;DHT22;974;52.400;9.818;2022-08-19T05:20:33;17.60;99.90
1948;DHT22;974;52.400;9.818;2022-08-19T05:23:37;17.70;99.90
1948;DHT22;974;52.400;9.818;2022-08-19T05:26:03;17.60;99.90
1948;DHT22;974;52.400;9.818;2022-08-19T05:28:29;17.60;99.90
1948;DHT22;974;52.400;9.818;2022-08-19T05:30:55;17.60;99.90
1948;DHT22;974;52.400;9.818;2022-08-19T05:33:21;17.70;99.90
1948;DHT22;974;52.400;9.818;2022-08-19T05:35:48;17.60;99.90
1948;DHT22;974;52.400;9.818;2022-08-19T05:38:15;17.60;99.90
1948;DHT22;974;52.400;9.818;2022-08-19T05:40:41;17.70;99.90
1948;DHT22;974;52.400;9.818;2022-08-19T05:43:08;17.70;99.90
1948;DHT22;974;52.400;9.818;2022-08-19T05:45:39;17.60;99.90
1948;DHT22;974;52.400;9.818;2022-08-19T05:48:05;17.60;99.90
1948;DHT22;974;52.400;9.818;2022-08-19T05:50:31;17.70;99.90
1948;DHT22;974;52.400;9.818;2022-08-19T05:52:56;17.70;99.90
1948;DHT22;974;52.400;9.818;2022-08-19T05:55:22;17.70;99.90
1948;DHT22;974;52.400;9.818;2022-08-19T05:57:48;17.70;99.90
1948;DHT22;974;52.400;9.818;2022-08-19T06:00:13;17.70;99.90
1948;DHT22;974;52.400;9.818;2022-08-19T06:02:39;17.80;99.90
1948;DHT22;974;52.400;9.818;2022-08-19T06:05:06;17.80;99.90
1948;DHT22;974;52.400;9.818;2022-08-19T06:07:35;17.70;99.90
1948;DHT22;974;52.400;9.818;2022-08-19T06:10:00;17.70;99.90
1948;DHT22;974;52.400;9.818;2022-08-19T06:12:30;17.70;99.90
1948;DHT22;974;52.400;9.818;2022-08-19T06:15:00;17.80;99.90
1948;DHT22;974;52.400;9.818;2022-08-19T06:17:25;17.90;99.90
1948;DHT22;974;52.400;9.818;2022-08-19T06:19:51;17.80;99.90
1948;DHT22;974;52.400;9.818;2022-08-19T06:22:17;17.80;99.90
1948;DHT22;974;52.400;9.818;2022-08-19T06:24:42;17.80;99.90
1948;DHT22;974;52.400;9.818;2022-08-19T06:27:08;17.70;99.90
1948;DHT22;974;52.400;9.818;2022-08-19T06:29:34;17.80;99.90
1948;DHT22;974;52.400;9.818;2022-08-19T06:32:02;17.90;99.90
1948;DHT22;974;52.400;9.818;2022-08-19T06:34:30;17.90;99.90
1948;DHT22;974;52.400;9.818;2022-08-19T06:36:58;18.00;99.90
1948;DHT22;974;52.400;9.818;2022-08-19T06:39:29;18.00;99.90
1948;DHT22;974;52.400;9.818;2022-08-19T06:41:58;18.10;99.90
1948;DHT22;974;52.400;9.818;2022-08-19T06:44:28;18.00;99.90
1948;DHT22;974;52.400;9.818;2022-08-19T06:46:55;18.10;99.90
1948;DHT22;974;52.400;9.818;2022-08-19T06:49:22;18.10;99.90
1948;DHT22;974;52.400;9.818;2022-08-19T06:51:48;18.00;99.90
1948;DHT22;974;52.400;9.818;2022-08-19T06:54:16;18.00;99.90
1948;DHT22;974;52.400;9.818;2022-08-19T06:56:42;18.10;99.90
1948;DHT22;974;52.400;9.818;2022-08-19T06:59:15;18.20;99.90
1948;DHT22;974;52.400;9.818;2022-08-19T07:01:44;18.20;99.90
1948;DHT22;974;52.400;9.818;2022-08-19T07:04:13;18.20;99.90
1948;DHT22;974;52.400;9.818;2022-08-19T07:06:39;18.20;99.90
1948;DHT22;974;52.400;9.818;2022-08-19T07:09:06;18.20;99.90
1948;DHT22;974;52.400;9.818;2022-08-19T07:11:32;18.10;99.90
1948;DHT22;974;52.400;9.818;2022-08-19T07:13:58;18.20;99.90
1948;DHT22;974;52.400;9.818;2022-08-19T07:16:24;18.10;99.90
1948;DHT22;974;52.400;9.818;2022-08-19T07:18:51;18.20;99.90
1948;DHT22;974;52.400;9.818;2022-08-19T07:21:22;18.20;99.90
1948;DHT22;974;52.400;9.818;2022-08-19T07:23:50;18.30;99.90
1948;DHT22;974;52.400;9.818;2022-08-19T07:26:23;18.40;99.90
1948;DHT22;974;52.400;9.818;2022-08-19T07:28:49;18.40;99.90
1948;DHT22;974;52.400;9.818;2022-08-19T07:31:19;18.40;99.90
1948;DHT22;974;52.400;9.818;2022-08-19T07:33:46;18.40;99.90
1948;DHT22;974;52.400;9.818;2022-08-19T07:36:14;18.50;99.90
1948;DHT22;974;52.400;9.818;2022-08-19T07:38:42;18.60;99.90
1948;DHT22;974;52.400;9.818;2022-08-19T07:41:13;18.70;99.90
1948;DHT22;974;52.400;9.818;2022-08-19T07:43:39;18.70;99.90
1948;DHT22;974;52.400;9.818;2022-08-19T07:46:05;18.60;99.90
1948;DHT22;974;52.400;9.818;2022-08-19T07:48:31;18.70;99.90
1948;DHT22;974;52.400;9.818;2022-08-19T07:51:00;18.80;99.90
1948;DHT22;974;52.400;9.818;2022-08-19T07:53:31;18.80;99.90
1948;DHT22;974;52.400;9.818;2022-08-19T07:55:58;18.90;99.90
1948;DHT22;974;52.400;9.818;2022-08-19T07:58:27;18.90;99.90
1948;DHT22;974;52.400;9.818;2022-08-19T08:00:53;19.00;99.90
1948;DHT22;974;52.400;9.818;2022-08-19T08:03:20;19.00;99.90
1948;DHT22;974;52.400;9.818;2022-08-19T08:06:07;19.10;99.90
1948;DHT22;974;52.400;9.818;2022-08-19T08:08:51;19.20;99.90
1948;DHT22;974;52.400;9.818;2022-08-19T08:11:35;19.30;99.90
1948;DHT22;974;52.400;9.818;2022-08-19T08:14:01;19.30;99.90
1948;DHT22;974;52.400;9.818;2022-08-19T08:16:26;19.30;99.90
1948;DHT22;974;52.400;9.818;2022-08-19T08:18:55;19.20;99.90
1948;DHT22;974;52.400;9.818;2022-08-19T08:21:20;19.30;99.90
1948;DHT22;974;52.400;9.818;2022-08-19T08:23:46;19.30;99.90
1948;DHT22;974;52.400;9.818;2022-08-19T08:26:11;19.30;99.90
1948;DHT22;974;52.400;9.818;2022-08-19T08:28:39;19.20;99.90
1948;DHT22;974;52.400;9.818;2022-08-19T08:31:05;19.40;99.90
1948;DHT22;974;52.400;9.818;2022-08-19T08:33:30;19.40;99.90
1948;DHT22;974;52.400;9.818;2022-08-19T08:35:56;19.50;99.90
1948;DHT22;974;52.400;9.818;2022-08-19T08:38:22;19.60;99.90
1948;DHT22;974;52.400;9.818;2022-08-19T08:40:54;19.40;99.90
1948;DHT22;974;52.400;9.818;2022-08-19T08:43:30;19.40;99.90
1948;DHT22;974;52.400;9.818;2022-08-19T08:51:03;19.50;99.90
1948;DHT22;974;52.400;9.818;2022-08-19T08:53:30;19.60;99.90
1948;DHT22;974;52.400;9.818;2022-08-19T08:55:57;19.80;99.90
1948;DHT22;974;52.400;9.818;2022-08-19T08:58:42;19.90;99.90
1948;DHT22;974;52.400;9.818;2022-08-19T09:01:10;20.00;99.90
1948;DHT22;974;52.400;9.818;2022-08-19T09:03:37;20.10;99.90
1948;DHT22;974;52.400;9.818;2022-08-19T09:06:12;20.00;99.90
1948;DHT22;974;52.400;9.818;2022-08-19T09:08:48;20.20;99.90
1948;DHT22;974;52.400;9.818;2022-08-19T09:11:32;20.50;99.90
1948;DHT22;974;52.400;9.818;2022-08-19T09:16:44;20.60;99.90
1948;DHT22;974;52.400;9.818;2022-08-19T09:19:10;20.30;99.90
1948;DHT22;974;52.400;9.818;2022-08-19T09:21:36;20.50;99.90
1948;DHT22;974;52.400;9.818;2022-08-19T09:24:04;20.40;99.90
1948;DHT22;974;52.400;9.818;2022-08-19T09:26:30;20.40;99.90
1948;DHT22;974;52.400;9.818;2022-08-19T09:29:00;20.50;99.90
1948;DHT22;974;52.400;9.818;2022-08-19T09:31:30;20.50;99.90
1948;DHT22;974;52.400;9.818;2022-08-19T09:33:58;20.30;99.90
1948;DHT22;974;52.400;9.818;2022-08-19T09:36:27;20.20;99.90
1948;DHT22;974;52.400;9.818;2022-08-19T09:38:55;20.40;99.90
1948;DHT22;974;52.400;9.818;2022-08-19T09:41:22;20.60;99.90
1948;DHT22;974;52.400;9.818;2022-08-19T09:43:50;20.60;99.90
1948;DHT22;974;52.400;9.818;2022-08-19T09:46:22;20.60;99.90
1948;DHT22;974;52.400;9.818;2022-08-19T09:48:48;20.80;99.90
1948;DHT22;974;52.400;9.818;2022-08-19T09:51:21;20.70;99.90
1948;DHT22;974;52.400;9.818;2022-08-19T09:53:48;20.80;99.90
1948;DHT22;974;52.400;9.818;2022-08-19T09:56:16;21.10;99.90
1948;DHT22;974;52.400;9.818;2022-08-19T09:58:42;21.40;99.90
1948;DHT22;974;52.400;9.818;2022-08-19T10:01:08;21.20;99.90
1948;DHT22;974;52.400;9.818;2022-08-19T10:03:35;21.00;99.90
1948;DHT22;974;52.400;9.818;2022-08-19T10:06:03;21.10;99.90
1948;DHT22;974;52.400;9.818;2022-08-19T10:08:32;21.30;99.90
1948;DHT22;974;52.400;9.818;2022-08-19T10:10:59;21.30;99.90
1948;DHT22;974;52.400;9.818;2022-08-19T10:13:28;21.30;99.90
1948;DHT22;974;52.400;9.818;2022-08-19T10:16:03;21.30;99.90
1948;DHT22;974;52.400;9.818;2022-08-19T10:18:29;21.50;99.90
1948;DHT22;974;52.400;9.818;2022-08-19T10:21:07;21.50;99.90
1948;DHT22;974;52.400;9.818;2022-08-19T10:23:35;21.70;99.90
1948;DHT22;974;52.400;9.818;2022-08-19T10:26:01;21.80;99.90
1948;DHT22;974;52.400;9.818;2022-08-19T10:28:28;22.00;99.90
1948;DHT22;974;52.400;9.818;2022-08-19T10:30:53;22.10;99.90
1948;DHT22;974;52.400;9.818;2022-08-19T10:33:19;22.30;99.90
1948;DHT22;974;52.400;9.818;2022-08-19T10:35:44;22.30;99.90
1948;DHT22;974;52.400;9.818;2022-08-19T10:38:12;22.20;99.90
1948;DHT22;974;52.400;9.818;2022-08-19T10:40:37;22.30;99.90
1948;DHT22;974;52.400;9.818;2022-08-19T10:43:03;22.60;99.90
1948;DHT22;974;52.400;9.818;2022-08-19T10:45:28;22.50;99.90
1948;DHT22;974;52.400;9.818;2022-08-19T10:47:54;22.50;99.90
1948;DHT22;974;52.400;9.818;2022-08-19T10:50:19;22.50;99.90
1948;DHT22;974;52.400;9.818;2022-08-19T10:53:05;22.50;99.90
1948;DHT22;974;52.400;9.818;2022-08-19T10:55:33;22.70;99.90
1948;DHT22;974;52.400;9.818;2022-08-19T10:58:19;22.70;99.90
1948;DHT22;974;52.400;9.818;2022-08-19T11:00:52;22.80;99.90
1948;DHT22;974;52.400;9.818;2022-08-19T11:03:18;23.10;99.90
1948;DHT22;974;52.400;9.818;2022-08-19T11:05:44;23.40;99.90
1948;DHT22;974;52.400;9.818;2022-08-19T11:08:09;23.70;99.90
1948;DHT22;974;52.400;9.818;2022-08-19T11:10:41;24.40;99.90
1948;DHT22;974;52.400;9.818;2022-08-19T11:13:08;25.90;99.90
1948;DHT22;974;52.400;9.818;2022-08-19T11:15:33;26.30;99.90
1948;DHT22;974;52.400;9.818;2022-08-19T11:18:00;27.60;99.90
1948;DHT22;974;52.400;9.818;2022-08-19T11:20:25;27.50;99.90
1948;DHT22;974;52.400;9.818;2022-08-19T11:22:52;27.20;99.90
1948;DHT22;974;52.400;9.818;2022-08-19T11:25:19;28.60;99.90
1948;DHT22;974;52.400;9.818;2022-08-19T11:27:44;30.00;99.90
1948;DHT22;974;52.400;9.818;2022-08-19T11:30:13;31.30;99.90
1948;DHT22;974;52.400;9.818;2022-08-19T11:32:39;33.40;99.90
1948;DHT22;974;52.400;9.818;2022-08-19T11:35:05;32.50;97.90
1948;DHT22;974;52.400;9.818;2022-08-19T11:37:31;32.90;95.30
1948;DHT22;974;52.400;9.818;2022-08-19T11:40:02;33.80;92.50
1948;DHT22;974;52.400;9.818;2022-08-19T11:42:27;36.30;87.80
1948;DHT22;974;52.400;9.818;2022-08-19T11:45:16;35.40;82.70
1948;DHT22;974;52.400;9.818;2022-08-19T11:47:41;32.50;81.70
1948;DHT22;974;52.400;9.818;2022-08-19T11:50:07;33.00;78.90
1948;DHT22;974;52.400;9.818;2022-08-19T11:52:33;34.00;78.80
1948;DHT22;974;52.400;9.818;2022-08-19T11:54:58;35.40;75.10
1948;DHT22;974;52.400;9.818;2022-08-19T11:57:24;35.70;73.80
1948;DHT22;974;52.400;9.818;2022-08-19T11:59:51;36.00;73.30
1948;DHT22;974;52.400;9.818;2022-08-19T12:02:17;36.70;68.80
1948;DHT22;974;52.400;9.818;2022-08-19T12:04:42;35.70;67.70
1948;DHT22;974;52.400;9.818;2022-08-19T12:07:08;35.40;64.10
1948;DHT22;974;52.400;9.818;2022-08-19T12:09:33;37.40;67.10
1948;DHT22;974;52.400;9.818;2022-08-19T12:12:00;36.80;61.30
1948;DHT22;974;52.400;9.818;2022-08-19T12:14:27;41.00;60.40
1948;DHT22;974;52.400;9.818;2022-08-19T12:16:53;39.90;57.40
1948;DHT22;974;52.400;9.818;2022-08-19T12:19:19;38.80;54.60
1948;DHT22;974;52.400;9.818;2022-08-19T12:21:44;41.70;54.70
1948;DHT22;974;52.400;9.818;2022-08-19T12:24:10;40.40;49.30
1948;DHT22;974;52.400;9.818;2022-08-19T12:26:36;41.10;50.60
1948;DHT22;974;52.400;9.818;2022-08-19T12:29:03;40.50;47.10
1948;DHT22;974;52.400;9.818;2022-08-19T12:31:29;39.70;45.90
1948;DHT22;974;52.400;9.818;2022-08-19T12:33:55;41.20;46.70
1948;DHT22;974;52.400;9.818;2022-08-19T12:36:21;42.90;44.80
1948;DHT22;974;52.400;9.818;2022-08-19T12:38:48;42.80;42.40
1948;DHT22;974;52.400;9.818;2022-08-19T12:41:15;40.70;41.50
1948;DHT22;974;52.400;9.818;2022-08-19T12:43:42;41.20;38.50
1948;DHT22;974;52.400;9.818;2022-08-19T12:46:08;41.20;39.30
1948;DHT22;974;52.400;9.818;2022-08-19T12:48:34;36.60;44.50
1948;DHT22;974;52.400;9.818;2022-08-19T12:51:05;33.00;50.70
1948;DHT22;974;52.400;9.818;2022-08-19T12:53:31;31.40;52.90
1948;DHT22;974;52.400;9.818;2022-08-19T12:55:57;30.50;56.10
1948;DHT22;974;52.400;9.818;2022-08-19T12:58:23;31.00;58.10
1948;DHT22;974;52.400;9.818;2022-08-19T13:00:48;29.70;59.90
1948;DHT22;974;52.400;9.818;2022-08-19T13:03:14;29.50;64.30
1948;DHT22;974;52.400;9.818;2022-08-19T13:05:40;29.20;63.70
1948;DHT22;974;52.400;9.818;2022-08-19T13:08:06;30.00;64.50
1948;DHT22;974;52.400;9.818;2022-08-19T13:10:34;30.50;65.40
1948;DHT22;974;52.400;9.818;2022-08-19T13:13:01;30.10;64.20
1948;DHT22;974;52.400;9.818;2022-08-19T13:15:27;30.10;64.90
1948;DHT22;974;52.400;9.818;2022-08-19T13:17:57;29.60;65.80
1948;DHT22;974;52.400;9.818;2022-08-19T13:20:23;28.90;65.90
1948;DHT22;974;52.400;9.818;2022-08-19T13:22:49;29.00;67.90
1948;DHT22;974;52.400;9.818;2022-08-19T13:25:15;28.80;68.30
1948;DHT22;974;52.400;9.818;2022-08-19T13:27:45;29.10;69.90
1948;DHT22;974;52.400;9.818;2022-08-19T13:30:14;28.80;69.70
1948;DHT22;974;52.400;9.818;2022-08-19T13:32:58;28.70;70.10
1948;DHT22;974;52.400;9.818;2022-08-19T13:38:05;28.60;70.80
1948;DHT22;974;52.400;9.818;2022-08-19T13:40:32;28.60;70.70
1948;DHT22;974;52.400;9.818;2022-08-19T13:43:01;28.30;72.20
1948;DHT22;974;52.400;9.818;2022-08-19T13:45:29;28.50;72.80
1948;DHT22;974;52.400;9.818;2022-08-19T13:47:56;28.50;73.60
1948;DHT22;974;52.400;9.818;2022-08-19T13:50:25;28.70;72.60
1948;DHT22;974;52.400;9.818;2022-08-19T13:52:53;28.20;69.90
1948;DHT22;974;52.400;9.818;2022-08-19T13:55:19;27.70;71.00
1948;DHT22;974;52.400;9.818;2022-08-19T13:57:45;27.80;72.20
1948;DHT22;974;52.400;9.818;2022-08-19T14:00:14;27.70;72.10
1948;DHT22;974;52.400;9.818;2022-08-19T14:02:43;27.30;71.10
1948;DHT22;974;52.400;9.818;2022-08-19T14:05:11;27.20;71.30
1948;DHT22;974;52.400;9.818;2022-08-19T14:07:37;27.30;72.70
1948;DHT22;974;52.400;9.818;2022-08-19T14:10:04;27.10;73.60
1948;DHT22;974;52.400;9.818;2022-08-19T14:12:31;27.10;74.60
1948;DHT22;974;52.400;9.818;2022-08-19T14:14:57;27.00;74.20
1948;DHT22;974;52.400;9.818;2022-08-19T14:17:23;27.10;74.50
1948;DHT22;974;52.400;9.818;2022-08-19T14:19:55;27.00;74.20
1948;DHT22;974;52.400;9.818;2022-08-19T14:22:21;26.90;73.70
1948;DHT22;974;52.400;9.818;2022-08-19T14:24:46;27.00;76.10
1948;DHT22;974;52.400;9.818;2022-08-19T14:27:13;27.00;75.40
1948;DHT22;974;52.400;9.818;2022-08-19T14:29:39;27.00;75.70
1948;DHT22;974;52.400;9.818;2022-08-19T14:32:05;27.00;75.70
1948;DHT22;974;52.400;9.818;2022-08-19T14:34:31;27.00;76.20
1948;DHT22;974;52.400;9.818;2022-08-19T14:36:57;27.00;75.10
1948;DHT22;974;52.400;9.818;2022-08-19T14:39:22;27.00;74.60
1948;DHT22;974;52.400;9.818;2022-08-19T14:41:48;27.00;74.10
1948;DHT22;974;52.400;9.818;2022-08-19T14:44:14;27.10;75.90
1948;DHT22;974;52.400;9.818;2022-08-19T14:46:40;27.00;73.60
1948;DHT22;974;52.400;9.818;2022-08-19T14:49:06;26.80;71.00
1948;DHT22;974;52.400;9.818;2022-08-19T14:51:31;26.90;72.20
1948;DHT22;974;52.400;9.818;2022-08-19T14:53:57;26.80;71.20
1948;DHT22;974;52.400;9.818;2022-08-19T14:56:26;26.80;72.60
1948;DHT22;974;52.400;9.818;2022-08-19T14:58:52;26.60;71.00
1948;DHT22;974;52.400;9.818;2022-08-19T15:01:21;26.60;71.60
1948;DHT22;974;52.400;9.818;2022-08-19T15:03:47;26.50;70.30
1948;DHT22;974;52.400;9.818;2022-08-19T15:06:13;26.60;70.60
1948;DHT22;974;52.400;9.818;2022-08-19T15:08:41;26.50;70.10
1948;DHT22;974;52.400;9.818;2022-08-19T15:11:10;26.50;71.00
1948;DHT22;974;52.400;9.818;2022-08-19T15:13:36;26.60;72.50
1948;DHT22;974;52.400;9.818;2022-08-19T15:16:03;26.50;71.80
1948;DHT22;974;52.400;9.818;2022-08-19T15:18:28;26.40;71.60
1948;DHT22;974;52.400;9.818;2022-08-19T15:20:54;26.50;72.90
1948;DHT22;974;52.400;9.818;2022-08-19T15:23:20;26.60;73.50
1948;DHT22;974;52.400;9.818;2022-08-19T15:25:46;26.60;73.40
1948;DHT22;974;52.400;9.818;2022-08-19T15:28:12;26.60;73.00
1948;DHT22;974;52.400;9.818;2022-08-19T15:30:39;26.50;72.20
1948;DHT22;974;52.400;9.818;2022-08-19T15:33:04;26.60;73.70
1948;DHT22;974;52.400;9.818;2022-08-19T15:35:31;26.60;73.80
1948;DHT22;974;52.400;9.818;2022-08-19T15:37:56;26.60;73.60
1948;DHT22;974;52.400;9.818;2022-08-19T15:40:24;26.60;74.60
1948;DHT22;974;52.400;9.818;2022-08-19T15:42:49;26.50;72.50
1948;DHT22;974;52.400;9.818;2022-08-19T15:45:16;26.50;72.20
1948;DHT22;974;52.400;9.818;2022-08-19T15:47:42;26.40;72.20
1948;DHT22;974;52.400;9.818;2022-08-19T15:50:19;26.40;72.80
1948;DHT22;974;52.400;9.818;2022-08-19T15:52:50;26.20;72.00
1948;DHT22;974;52.400;9.818;2022-08-19T15:55:19;26.30;73.40
1948;DHT22;974;52.400;9.818;2022-08-19T15:57:45;26.30;73.40
1948;DHT22;974;52.400;9.818;2022-08-19T16:00:30;26.40;73.90
1948;DHT22;974;52.400;9.818;2022-08-19T16:03:14;26.40;73.40
1948;DHT22;974;52.400;9.818;2022-08-19T16:05:59;26.30;72.70
1948;DHT22;974;52.400;9.818;2022-08-19T16:08:43;26.40;73.80
1948;DHT22;974;52.400;9.818;2022-08-19T16:11:12;26.40;74.00
1948;DHT22;974;52.400;9.818;2022-08-19T16:13:38;26.30;73.10
1948;DHT22;974;52.400;9.818;2022-08-19T16:16:05;26.20;73.80
1948;DHT22;974;52.400;9.818;2022-08-19T16:18:31;26.20;73.20
1948;DHT22;974;52.400;9.818;2022-08-19T16:21:05;26.30;73.50
1948;DHT22;974;52.400;9.818;2022-08-19T16:23:33;26.40;74.40
1948;DHT22;974;52.400;9.818;2022-08-19T16:25:59;26.30;72.50
1948;DHT22;974;52.400;9.818;2022-08-19T16:28:24;26.30;72.10
1948;DHT22;974;52.400;9.818;2022-08-19T16:30:50;26.40;72.90
1948;DHT22;974;52.400;9.818;2022-08-19T16:33:15;26.30;71.40
1948;DHT22;974;52.400;9.818;2022-08-19T16:35:41;26.30;71.70